Bergamo/Orio al Serio Airport

Airport
ICAO code: 
LIME
IATA Code: 
BGY
Summary
ICAO Region: 
EUR
Territory: 
Location: 
Orio al Serio, Lombardia
Serving: 
Bergamo
Elevation: 
782 ft
Coordinates: 
Aerial View: 
45° 40' 5.362" N, 9° 42' 1.682" E
Metar
Observation
LIME 281220Z 15008KT 2500 BCFG BKN002 03/02 Q1026 NOSIG
Station
Bergamo / Orio Al Serio
Date/Time
2022-01-28 12:20:00
Wind direction
150°
Wind speed
08 kts
Lowest cloud amount
broken clouds
Temperature
3°C
Dew point
2°C
Humidity
93%
QNH
1026 hPa
Weather condition
n/a

International airport serving Bergamo in northern Italy. Officially also known as Il Caravaggio International Airport

Climatology

Humid “subtropical” climate (Köppen climate classification Cfa) - characterized by hot, humid summers and cool winters. Significant amounts of precipitation occur in all seasons in most areas. Winter rainfall (and sometimes snowfall) is associated with large storms that the westerlies steer from west to east. Most summer rainfall occurs during thunderstorms.

Runways

Designator Length Width Surface Rops
12/30 778 18 ASP Yes/Yes
10/28 2937 45 ASP Yes/Yes
Airport map: 
Aerial View: 

SKYbrary Partners:

Safety knowledge contributed by: